Time;durP1;ratioP1;P1;durP2;ratioP2;P2;SDS_P1;SDS_P2;PMS_P1;PMS_P2;Temp;Humidity;BMP_temperature;BMP_pressure;BME280_temperature;BME280_humidity;BME280_pressure;Samples;Min_cycle;Max_cycle;Signal;HPM_P1;HPM_P2
2023/09/29 00:00:33;;;;;;;;;;;;;;;27.32;39.00;100879.69;5074518;28;1193;-24
2023/09/29 00:02:59;;;;;;;;;;;;;;;27.34;38.96;100885.75;5065595;28;1047;-24
2023/09/29 00:05:25;;;;;;;;;;;;;;;27.43;38.66;100891.91;5063350;28;1047;-22
2023/09/29 00:07:53;;;;;;;;;;;;;;;27.41;38.90;100881.28;5077241;28;1007;-24
2023/09/29 00:10:20;;;;;;;;;;;;;;;27.43;38.72;100873.00;5076508;28;1992;-24
2023/09/29 00:12:46;;;;;;;;;;;;;;;27.35;38.86;100871.22;5076718;28;1202;-24
2023/09/29 00:15:11;;;;;;;;;;;;;;;27.48;38.28;100874.13;5076281;28;1055;-24
2023/09/29 00:17:37;;;;;;;;;;;;;;;27.42;38.63;100874.88;5076348;28;2547;-25
2023/09/29 00:20:12;;;;;;;;;;;;;;;27.46;38.61;100872.66;5073258;28;1496;-25
2023/09/29 00:22:37;;;;;;;;;;;;;;;27.46;38.87;100875.34;5067278;28;1114;-23
2023/09/29 00:25:04;;;;;;;;;;;;;;;27.40;38.89;100874.22;5076509;28;1094;-25
2023/09/29 00:27:30;;;;;;;;;;;;;;;27.49;38.63;100872.28;5076083;28;1056;-24
2023/09/29 00:29:55;;;;;;;;;;;;;;;27.54;38.23;100867.19;5076186;28;1919;-24
2023/09/29 00:32:21;;;;;;;;;;;;;;;27.48;38.28;100863.31;5076473;28;1114;-24
2023/09/29 00:34:46;;;;;;;;;;;;;;;27.42;38.79;100863.22;5063085;28;992;-24
2023/09/29 00:37:12;;;;;;;;;;;;;;;27.40;38.77;100866.09;5066887;28;1107;-24
2023/09/29 00:39:38;;;;;;;;;;;;;;;27.38;39.07;100858.19;5072923;28;1083;-24
2023/09/29 00:42:04;;;;;;;;;;;;;;;27.41;39.26;100858.84;5066476;28;1137;-24
2023/09/29 00:44:32;;;;;;;;;;;;;;;27.37;38.93;100855.66;5055065;28;1145;-24
2023/09/29 00:46:57;;;;;;;;;;;;;;;27.44;38.42;100862.03;5058220;28;2419;-25
2023/09/29 00:49:23;;;;;;;;;;;;;;;27.39;39.10;100853.63;5075392;28;1973;-24
2023/09/29 00:51:49;;;;;;;;;;;;;;;27.36;38.66;100856.69;5075882;28;1036;-25
2023/09/29 00:54:14;;;;;;;;;;;;;;;27.30;38.90;100857.41;5075828;28;1075;-24
2023/09/29 00:56:40;;;;;;;;;;;;;;;27.39;38.83;100846.34;5047709;28;1047;-24
2023/09/29 00:59:07;;;;;;;;;;;;;;;27.34;38.76;100842.53;5059722;28;1118;-24
2023/09/29 01:01:34;;;;;;;;;;;;;;;27.34;39.16;100856.84;5054558;28;1120;-23
2023/09/29 01:04:00;;;;;;;;;;;;;;;27.43;38.56;100854.94;5048103;28;1078;-24
2023/09/29 01:06:26;;;;;;;;;;;;;;;27.31;38.65;100862.63;5056051;28;1202;-24
2023/09/29 01:08:52;;;;;;;;;;;;;;;27.37;38.98;100861.06;5050355;28;1906;-24
2023/09/29 01:11:18;;;;;;;;;;;;;;;27.32;39.04;100858.91;5046792;28;1090;-24
2023/09/29 01:13:43;;;;;;;;;;;;;;;27.39;38.47;100856.34;5056425;28;1131;-24
2023/09/29 01:16:09;;;;;;;;;;;;;;;27.38;38.96;100858.19;5054905;28;1068;-24
2023/09/29 01:18:36;;;;;;;;;;;;;;;27.42;38.33;100849.72;5053853;28;2671;-24
2023/09/29 01:21:03;;;;;;;;;;;;;;;27.43;38.78;100845.97;5054572;28;1207;-23
2023/09/29 01:23:32;;;;;;;;;;;;;;;27.32;39.04;100844.56;5055814;28;1139;-25
2023/09/29 01:25:57;;;;;;;;;;;;;;;27.32;38.85;100844.56;5055469;28;1107;-24
2023/09/29 01:28:24;;;;;;;;;;;;;;;27.36;38.48;100840.50;5054869;28;1984;-24
2023/09/29 01:30:53;;;;;;;;;;;;;;;27.41;38.46;100850.75;5055456;28;1071;-23
2023/09/29 01:33:19;;;;;;;;;;;;;;;27.31;38.98;100848.31;5051042;28;1051;-24
2023/09/29 01:35:44;;;;;;;;;;;;;;;27.34;38.84;100846.03;5046421;28;1094;-24
2023/09/29 01:38:10;;;;;;;;;;;;;;;27.35;38.60;100853.16;5054210;28;1293;-24
2023/09/29 01:40:35;;;;;;;;;;;;;;;27.35;38.87;100858.56;5055245;28;913;-24
2023/09/29 01:43:01;;;;;;;;;;;;;;;27.49;38.42;100859.59;5055436;28;1074;-24
2023/09/29 01:45:26;;;;;;;;;;;;;;;27.35;38.84;100863.09;5045091;28;1171;-24
2023/09/29 01:47:52;;;;;;;;;;;;;;;27.44;38.80;100870.13;5047632;28;2442;-26
2023/09/29 01:50:18;;;;;;;;;;;;;;;27.35;39.11;100868.50;5055237;28;1973;-24
2023/09/29 01:52:44;;;;;;;;;;;;;;;27.45;38.76;100876.34;5051064;28;1098;-26
2023/09/29 01:55:14;;;;;;;;;;;;;;;27.42;38.42;100865.91;5045109;28;1103;-25
2023/09/29 01:57:40;;;;;;;;;;;;;;;27.37;38.67;100869.16;5055326;28;1062;-25
2023/09/29 02:00:08;;;;;;;;;;;;;;;27.36;38.72;100876.44;5057382;28;1610;-25
2023/09/29 02:02:38;;;;;;;;;;;;;;;27.22;39.14;100872.66;5074812;28;1163;-25
2023/09/29 02:05:04;;;;;;;;;;;;;;;27.30;39.17;100869.06;5075412;28;928;-24
2023/09/29 02:07:30;;;;;;;;;;;;;;;27.26;39.07;100873.97;5061922;28;1075;-24
2023/09/29 02:09:55;;;;;;;;;;;;;;;27.38;38.95;100868.13;5063679;28;1959;-24
2023/09/29 02:12:21;;;;;;;;;;;;;;;27.43;38.65;100873.84;5073491;28;1158;-24
2023/09/29 02:14:47;;;;;;;;;;;;;;;27.34;38.69;100866.84;5057530;28;1194;-23
2023/09/29 02:17:13;;;;;;;;;;;;;;;27.56;38.12;100873.22;5056246;28;2385;-24
2023/09/29 02:19:38;;;;;;;;;;;;;;;27.35;38.96;100874.75;5057209;28;1130;-24
2023/09/29 02:22:05;;;;;;;;;;;;;;;27.31;38.99;100864.50;5057065;28;1289;-24
2023/09/29 02:24:30;;;;;;;;;;;;;;;27.30;38.87;100868.22;5056913;28;1139;-23
2023/09/29 02:26:56;;;;;;;;;;;;;;;27.33;39.04;100875.94;5074771;28;995;-24
2023/09/29 02:29:21;;;;;;;;;;;;;;;27.33;38.99;100875.94;5056829;28;1964;-24
2023/09/29 02:31:47;;;;;;;;;;;;;;;27.31;39.01;100884.22;5074874;28;1154;-25
2023/09/29 02:34:15;;;;;;;;;;;;;;;27.39;38.66;100883.34;5057069;28;1119;-24
2023/09/29 02:36:40;;;;;;;;;;;;;;;27.31;39.24;100891.50;5074670;28;1082;-24
2023/09/29 02:39:08;;;;;;;;;;;;;;;27.38;39.05;100878.94;5074985;28;1050;-22
2023/09/29 02:41:34;;;;;;;;;;;;;;;27.35;38.46;100888.25;5056099;28;1131;-24
2023/09/29 02:43:59;;;;;;;;;;;;;;;27.21;39.34;100887.19;5056421;28;1088;-24
2023/09/29 02:46:25;;;;;;;;;;;;;;;27.30;38.94;100885.25;5077243;28;2357;-23
2023/09/29 02:48:50;;;;;;;;;;;;;;;27.30;39.05;100879.84;5048274;28;1902;-24
2023/09/29 02:51:16;;;;;;;;;;;;;;;27.31;39.22;100878.00;5063835;28;1064;-25
2023/09/29 02:53:42;;;;;;;;;;;;;;;27.39;38.35;100875.25;5078150;28;962;-23
2023/09/29 02:56:11;;;;;;;;;;;;;;;27.33;38.96;100879.50;5078480;28;1091;-23
2023/09/29 02:58:38;;;;;;;;;;;;;;;27.33;39.08;100884.03;5059893;28;1146;-24
2023/09/29 03:01:05;;;;;;;;;;;;;;;27.33;39.21;100889.44;5058618;28;1136;-24
2023/09/29 03:03:30;;;;;;;;;;;;;;;27.44;38.71;100889.03;5070739;28;1072;-24
2023/09/29 03:05:58;;;;;;;;;;;;;;;27.41;38.78;100891.25;5056522;28;1229;-24
2023/09/29 03:08:23;;;;;;;;;;;;;;;27.37;39.14;100888.94;5065245;28;1894;-25
2023/09/29 03:10:49;;;;;;;;;;;;;;;27.36;38.87;100889.13;5077534;28;1048;-24
2023/09/29 03:13:15;;;;;;;;;;;;;;;27.28;39.28;100892.69;5078147;28;967;-24
2023/09/29 03:15:41;;;;;;;;;;;;;;;27.51;38.96;100894.53;5059392;28;1259;-24
2023/09/29 03:18:07;;;;;;;;;;;;;;;27.42;38.66;100898.34;5047239;28;2418;-24
2023/09/29 03:20:33;;;;;;;;;;;;;;;27.29;39.17;100905.19;5058805;28;1164;-22
2023/09/29 03:23:04;;;;;;;;;;;;;;;27.20;39.24;100896.31;5059587;28;1063;-25
2023/09/29 03:25:29;;;;;;;;;;;;;;;27.29;39.17;100909.75;5039896;28;1095;-23
2023/09/29 03:27:55;;;;;;;;;;;;;;;27.26;38.89;100906.38;5059493;28;1139;-23
2023/09/29 03:30:21;;;;;;;;;;;;;;;27.12;38.76;100908.03;5070568;28;1918;-22
2023/09/29 03:32:47;;;;;;;;;;;;;;;26.54;38.29;100902.91;5071389;28;1015;-22
2023/09/29 03:35:13;;;;;;;;;;;;;;;26.39;38.44;100905.50;5070671;28;1127;-24
2023/09/29 03:37:39;;;;;;;;;;;;;;;26.27;38.53;100908.53;5058268;28;1091;-22
2023/09/29 03:40:11;;;;;;;;;;;;;;;26.43;38.90;100904.13;5077081;28;1067;-22
2023/09/29 03:42:37;;;;;;;;;;;;;;;25.77;40.10;100908.66;5071095;28;1124;-23
2023/09/29 03:45:05;;;;;;;;;;;;;;;26.17;39.25;100894.41;5065566;28;1102;-23
2023/09/29 03:47:34;;;;;;;;;;;;;;;26.24;38.63;100899.97;5072245;28;1848;-22
2023/09/29 03:50:00;;;;;;;;;;;;;;;26.22;38.03;100891.19;5077102;28;1914;-23
2023/09/29 03:52:26;;;;;;;;;;;;;;;26.43;38.52;100897.88;5076644;28;1017;-25
2023/09/29 03:54:51;;;;;;;;;;;;;;;27.07;37.47;100885.25;5076955;28;1159;-24
2023/09/29 03:57:17;;;;;;;;;;;;;;;27.28;37.76;100883.78;5063417;28;1041;-25
2023/09/29 03:59:42;;;;;;;;;;;;;;;27.49;37.49;100891.19;5058666;28;1126;-25
2023/09/29 04:02:08;;;;;;;;;;;;;;;27.60;37.13;100888.06;5076865;28;1078;-25
2023/09/29 04:04:34;;;;;;;;;;;;;;;27.66;37.26;100888.34;5076462;28;1094;-24
2023/09/29 04:06:59;;;;;;;;;;;;;;;27.64;37.52;100885.81;5076929;28;1019;-26
2023/09/29 04:09:25;;;;;;;;;;;;;;;27.84;37.40;100886.16;5076584;28;1913;-25
2023/09/29 04:11:52;;;;;;;;;;;;;;;27.90;37.54;100883.72;5076036;28;1133;-26
2023/09/29 04:14:17;;;;;;;;;;;;;;;27.75;38.11;100885.41;5065019;28;1047;-25
2023/09/29 04:16:43;;;;;;;;;;;;;;;27.75;37.63;100881.84;5076236;28;1975;-23
2023/09/29 04:19:11;;;;;;;;;;;;;;;27.64;38.48;100883.13;5076917;28;1093;-25
2023/09/29 04:21:37;;;;;;;;;;;;;;;27.91;38.05;100880.84;5063368;28;1022;-24
2023/09/29 04:24:02;;;;;;;;;;;;;;;27.60;38.89;100879.09;5076646;28;1198;-25
2023/09/29 04:26:28;;;;;;;;;;;;;;;28.03;38.03;100881.22;5076401;28;1092;-24
2023/09/29 04:28:54;;;;;;;;;;;;;;;28.17;37.63;100884.13;5076467;28;1906;-24
2023/09/29 04:31:20;;;;;;;;;;;;;;;27.94;36.48;100882.34;5076604;28;1175;-26
2023/09/29 04:33:45;;;;;;;;;;;;;;;27.81;36.99;100881.13;5076668;28;1036;-24
2023/09/29 04:36:11;;;;;;;;;;;;;;;28.00;37.17;100887.00;5076709;28;1143;-25
2023/09/29 04:38:36;;;;;;;;;;;;;;;28.16;36.72;100898.69;5076162;28;1048;-24
2023/09/29 04:41:02;;;;;;;;;;;;;;;28.21;36.72;100890.84;5076203;28;1118;-25
2023/09/29 04:43:28;;;;;;;;;;;;;;;28.30;36.25;100897.81;5076728;28;1039;-25
2023/09/29 04:45:54;;;;;;;;;;;;;;;28.36;36.52;100902.50;5075896;28;1140;-23
2023/09/29 04:48:20;;;;;;;;;;;;;;;28.35;36.36;100902.69;5077064;28;2528;-25
2023/09/29 04:50:45;;;;;;;;;;;;;;;28.44;35.88;100904.28;5062784;28;1016;-24
2023/09/29 04:53:11;;;;;;;;;;;;;;;28.46;36.69;100909.53;5075780;28;1115;-24
2023/09/29 04:55:36;;;;;;;;;;;;;;;28.40;36.33;100907.53;5076083;28;1150;-25
2023/09/29 04:58:01;;;;;;;;;;;;;;;28.38;36.49;100905.03;5076385;28;1186;-25
2023/09/29 05:00:27;;;;;;;;;;;;;;;28.35;36.55;100908.13;5074302;28;1052;-25
2023/09/29 05:02:52;;;;;;;;;;;;;;;28.30;36.92;100911.34;5065500;28;1139;-24
2023/09/29 05:05:18;;;;;;;;;;;;;;;28.39;36.72;100914.00;5076202;28;1087;-24
2023/09/29 05:07:44;;;;;;;;;;;;;;;28.38;36.30;100915.03;5065565;28;1094;-26
2023/09/29 05:10:16;;;;;;;;;;;;;;;28.24;36.53;100917.50;5072789;28;1914;-26
2023/09/29 05:12:43;;;;;;;;;;;;;;;28.24;36.49;100923.75;5076568;28;1129;-25
2023/09/29 05:15:09;;;;;;;;;;;;;;;28.19;36.45;100920.78;5071122;28;1020;-25
2023/09/29 05:17:34;;;;;;;;;;;;;;;28.19;37.26;100926.19;5067562;28;1056;-25
2023/09/29 05:20:00;;;;;;;;;;;;;;;28.10;37.49;100920.03;5076046;28;1241;-24
2023/09/29 05:22:25;;;;;;;;;;;;;;;28.13;37.68;100921.50;5076235;28;1062;-25
2023/09/29 05:24:53;;;;;;;;;;;;;;;28.38;37.30;100929.38;5071154;28;1118;-25
2023/09/29 05:27:19;;;;;;;;;;;;;;;28.43;37.29;100937.78;5067737;28;1230;-24
2023/09/29 05:29:45;;;;;;;;;;;;;;;28.24;37.35;100939.16;5075622;28;1972;-26
2023/09/29 05:32:10;;;;;;;;;;;;;;;27.92;37.95;100936.59;5075941;28;1159;-25
2023/09/29 05:34:36;;;;;;;;;;;;;;;28.15;37.57;100940.25;5076301;28;1129;-26
2023/09/29 05:37:02;;;;;;;;;;;;;;;28.22;37.64;100943.91;5067435;28;1127;-24
2023/09/29 05:39:28;;;;;;;;;;;;;;;28.22;37.64;100936.63;5067025;28;1222;-24
2023/09/29 05:41:53;;;;;;;;;;;;;;;26.98;35.38;100943.81;5075820;28;1216;-25
2023/09/29 05:44:19;;;;;;;;;;;;;;;27.39;37.21;100957.09;5067270;28;1018;-24
2023/09/29 05:46:44;;;;;;;;;;;;;;;27.52;37.60;100950.28;5071350;28;1128;-25
2023/09/29 05:49:10;;;;;;;;;;;;;;;27.66;37.83;100955.91;5075801;28;1977;-24
2023/09/29 05:51:36;;;;;;;;;;;;;;;27.61;38.17;100959.16;5062549;28;1097;-25
2023/09/29 05:54:03;;;;;;;;;;;;;;;27.54;38.22;100952.78;5075792;28;1036;-25
2023/09/29 05:56:31;;;;;;;;;;;;;;;27.75;37.93;100958.38;5076210;28;1078;-22
2023/09/29 05:58:57;;;;;;;;;;;;;;;27.75;37.77;100958.38;5075461;28;1133;-23
2023/09/29 06:01:25;;;;;;;;;;;;;;;27.72;38.14;100964.16;5075315;28;1155;-23
2023/09/29 06:03:50;;;;;;;;;;;;;;;27.77;37.86;100962.75;5075695;28;1050;-23
2023/09/29 06:06:16;;;;;;;;;;;;;;;27.77;37.79;100968.16;5074738;28;1087;-23
2023/09/29 06:08:44;;;;;;;;;;;;;;;27.60;38.53;100968.25;5063579;28;1910;-23
2023/09/29 06:11:10;;;;;;;;;;;;;;;27.55;38.81;100966.13;5066607;28;1186;-24
2023/09/29 06:13:35;;;;;;;;;;;;;;;27.71;38.70;100978.69;5075481;28;1209;-24
2023/09/29 06:16:03;;;;;;;;;;;;;;;27.97;38.05;100976.59;5075383;28;1392;-22
2023/09/29 06:18:29;;;;;;;;;;;;;;;27.96;38.20;100959.53;5072169;28;1237;-23
2023/09/29 06:20:54;;;;;;;;;;;;;;;27.85;37.73;100957.28;5064471;28;1309;-24
2023/09/29 06:23:20;;;;;;;;;;;;;;;28.37;36.12;100968.28;5075705;28;1115;-24
2023/09/29 06:25:45;;;;;;;;;;;;;;;28.18;36.81;100967.78;5078897;28;1460;-23
2023/09/29 06:28:11;;;;;;;;;;;;;;;28.15;36.71;100967.28;5060470;28;1125;-23
2023/09/29 06:30:38;;;;;;;;;;;;;;;28.28;36.11;100964.78;5069370;28;1926;-23
2023/09/29 06:33:03;;;;;;;;;;;;;;;28.26;36.56;100977.66;5073234;28;1151;-23
2023/09/29 06:35:29;;;;;;;;;;;;;;;28.44;36.28;100969.22;5073686;28;1328;-24
2023/09/29 06:37:55;;;;;;;;;;;;;;;28.35;36.45;100970.34;5075075;28;1330;-22
2023/09/29 06:40:21;;;;;;;;;;;;;;;28.39;36.81;100968.94;5077575;28;1406;-22
2023/09/29 06:42:47;;;;;;;;;;;;;;;28.39;36.13;100965.41;5072109;28;1254;-23
2023/09/29 06:45:12;;;;;;;;;;;;;;;28.39;35.83;100968.94;5063824;28;1109;-23
2023/09/29 06:47:38;;;;;;;;;;;;;;;28.31;36.07;100966.31;5065159;28;1341;-22
2023/09/29 06:50:04;;;;;;;;;;;;;;;28.50;36.03;100969.50;5066548;28;1902;-23
2023/09/29 06:52:29;;;;;;;;;;;;;;;28.62;36.09;100968.00;5065225;28;1133;-23
2023/09/29 06:54:55;;;;;;;;;;;;;;;28.63;35.89;100972.38;5078590;28;937;-23
2023/09/29 06:57:20;;;;;;;;;;;;;;;28.56;36.04;100969.56;5079153;28;1032;-24
2023/09/29 06:59:46;;;;;;;;;;;;;;;28.64;35.07;100963.25;5078132;28;1254;-23
2023/09/29 07:02:12;;;;;;;;;;;;;;;28.65;35.39;100970.31;5078470;28;1130;-23
2023/09/29 07:04:37;;;;;;;;;;;;;;;28.72;35.71;100968.56;5078775;28;1052;-23
2023/09/29 07:07:02;;;;;;;;;;;;;;;28.84;35.52;100973.47;5077792;28;1079;-23
2023/09/29 07:09:28;;;;;;;;;;;;;;;28.76;35.76;100968.19;5078427;28;1898;-23
2023/09/29 07:11:54;;;;;;;;;;;;;;;28.83;35.12;100969.94;5077890;28;1058;-23
2023/09/29 07:14:19;;;;;;;;;;;;;;;28.70;36.18;100973.31;5078235;28;1083;-23
2023/09/29 07:16:49;;;;;;;;;;;;;;;28.68;36.28;100971.81;5064829;28;1071;-23
2023/09/29 07:19:15;;;;;;;;;;;;;;;28.75;35.87;100969.19;5078272;28;853;-23
2023/09/29 07:21:41;;;;;;;;;;;;;;;28.94;35.04;100971.31;5077444;28;1111;-24
2023/09/29 07:24:07;;;;;;;;;;;;;;;29.00;35.59;100974.31;5078282;28;1122;-22
2023/09/29 07:26:32;;;;;;;;;;;;;;;28.94;37.32;100984.88;5077373;28;1117;-23
2023/09/29 07:29:01;;;;;;;;;;;;;;;29.02;36.91;100983.94;5077753;28;1983;-23
2023/09/29 07:31:46;;;;;;;;;;;;;;;28.82;37.43;100989.06;5077067;28;1226;-24
2023/09/29 07:34:11;;;;;;;;;;;;;;;28.84;37.41;100989.72;5077956;28;1214;-23
2023/09/29 07:36:39;;;;;;;;;;;;;;;29.08;36.88;100985.03;5078099;28;1139;-23
2023/09/29 07:39:04;;;;;;;;;;;;;;;28.99;36.76;100999.72;5078061;28;1023;-23
2023/09/29 07:41:30;;;;;;;;;;;;;;;28.99;36.11;100999.72;5077860;28;1222;-23
2023/09/29 07:43:56;;;;;;;;;;;;;;;28.90;36.40;100999.78;5077326;28;847;-23
2023/09/29 07:46:22;;;;;;;;;;;;;;;28.85;36.80;101007.63;5078077;28;1194;-22
2023/09/29 07:48:47;;;;;;;;;;;;;;;28.94;36.49;101002.97;5077794;28;1930;-23
2023/09/29 07:51:13;;;;;;;;;;;;;;;28.92;36.80;101007.72;5071592;28;1140;-23
2023/09/29 07:53:38;;;;;;;;;;;;;;;29.04;36.49;101010.81;5069939;28;1102;-22
2023/09/29 07:56:04;;;;;;;;;;;;;;;29.07;36.87;101010.44;5077234;28;1168;-24
2023/09/29 07:58:29;;;;;;;;;;;;;;;29.18;36.32;100999.09;5077785;28;1050;-23
2023/09/29 08:00:55;;;;;;;;;;;;;;;29.23;36.26;100995.00;5077295;28;1234;-23
2023/09/29 08:03:20;;;;;;;;;;;;;;;29.24;35.96;100994.81;5077543;28;1122;-25
2023/09/29 08:05:46;;;;;;;;;;;;;;;29.44;35.07;101005.88;5076765;28;1082;-23
2023/09/29 08:08:11;;;;;;;;;;;;;;;29.60;35.25;100998.53;5076569;28;879;-23
2023/09/29 08:10:37;;;;;;;;;;;;;;;29.73;35.47;101003.22;5076831;28;1976;-23
2023/09/29 08:13:02;;;;;;;;;;;;;;;29.79;34.65;101002.47;5076428;28;1180;-24
2023/09/29 08:15:28;;;;;;;;;;;;;;;29.72;35.45;101000.69;5077044;28;1042;-23
2023/09/29 08:17:53;;;;;;;;;;;;;;;29.65;35.10;100997.94;5076924;28;1090;-23
2023/09/29 08:20:20;;;;;;;;;;;;;;;29.73;34.89;100997.78;5076824;28;1078;-23
2023/09/29 08:22:45;;;;;;;;;;;;;;;29.64;34.73;100998.97;5076718;28;1075;-23
2023/09/29 08:25:11;;;;;;;;;;;;;;;29.75;34.39;101000.31;5076011;28;1100;-25
2023/09/29 08:27:37;;;;;;;;;;;;;;;29.89;34.22;100996.69;5076456;28;1152;-24
2023/09/29 08:30:03;;;;;;;;;;;;;;;29.76;34.48;100989.25;5075770;28;1902;-26
2023/09/29 08:32:29;;;;;;;;;;;;;;;29.74;34.38;100999.50;5076242;28;874;-25
2023/09/29 08:34:55;;;;;;;;;;;;;;;29.98;33.38;100994.66;5076438;28;1195;-24
2023/09/29 08:37:20;;;;;;;;;;;;;;;29.79;34.48;100996.19;5077045;28;1122;-23
2023/09/29 08:39:46;;;;;;;;;;;;;;;29.85;34.34;101006.25;5076679;28;1032;-24
2023/09/29 08:42:32;;;;;;;;;;;;;;;29.69;34.63;100999.22;5075715;28;1078;-24
2023/09/29 08:44:58;;;;;;;;;;;;;;;29.66;34.20;100997.72;5058529;28;1445;-22
2023/09/29 08:47:25;;;;;;;;;;;;;;;29.77;34.05;100993.69;5075256;28;1070;-23
2023/09/29 08:49:51;;;;;;;;;;;;;;;29.91;34.15;100994.59;5076268;28;1899;-25
2023/09/29 08:52:17;;;;;;;;;;;;;;;29.92;34.87;100982.75;5059123;28;1110;-25
2023/09/29 08:54:42;;;;;;;;;;;;;;;30.00;34.64;100984.47;5058038;28;1282;-25
2023/09/29 08:57:08;;;;;;;;;;;;;;;30.10;34.20;100984.13;5058050;28;1305;-24
2023/09/29 08:59:33;;;;;;;;;;;;;;;30.02;34.30;100993.25;5058168;28;1146;-25
2023/09/29 09:01:59;;;;;;;;;;;;;;;30.12;33.58;100987.47;5076406;28;1167;-26
2023/09/29 09:04:27;;;;;;;;;;;;;;;30.09;33.83;100985.16;5069808;28;1019;-25
2023/09/29 09:06:52;;;;;;;;;;;;;;;30.02;34.30;100985.09;5075943;28;1154;-25
2023/09/29 09:09:21;;;;;;;;;;;;;;;29.86;34.52;100978.13;5076398;28;1972;-24
2023/09/29 09:11:47;;;;;;;;;;;;;;;30.08;33.29;100993.50;5076211;28;1007;-23
2023/09/29 09:14:13;;;;;;;;;;;;;;;29.86;35.04;100983.53;5076511;28;1109;-23
2023/09/29 09:16:40;;;;;;;;;;;;;;;29.74;34.85;100980.50;5075579;28;1189;-22
2023/09/29 09:19:12;;;;;;;;;;;;;;;29.73;34.93;100986.13;5075568;28;1114;-22
2023/09/29 09:21:37;;;;;;;;;;;;;;;29.76;34.17;100975.72;5075976;28;1172;-22
2023/09/29 09:24:03;;;;;;;;;;;;;;;29.87;34.26;100971.66;5075881;28;1130;-23
2023/09/29 09:26:29;;;;;;;;;;;;;;;29.69;34.31;100977.53;5075423;28;1027;-23
2023/09/29 09:28:54;;;;;;;;;;;;;;;29.69;33.78;100977.53;5076314;28;1914;-23
2023/09/29 09:31:20;;;;;;;;;;;;;;;29.66;33.88;100973.34;5075868;28;1034;-24
2023/09/29 09:33:51;;;;;;;;;;;;;;;29.64;34.44;100970.00;5076588;28;1092;-23
2023/09/29 09:36:17;;;;;;;;;;;;;;;29.69;34.11;100978.41;5075852;28;1123;-22
2023/09/29 09:38:43;;;;;;;;;;;;;;;29.73;33.87;100978.00;5075740;28;1027;-24
2023/09/29 09:41:09;;;;;;;;;;;;;;;29.78;33.54;100984.50;5075675;28;1127;-23
2023/09/29 09:43:35;;;;;;;;;;;;;;;29.59;33.67;100983.31;5057898;28;1059;-22
2023/09/29 09:46:03;;;;;;;;;;;;;;;29.92;33.69;100990.88;5075681;28;1104;-23
2023/09/29 09:48:35;;;;;;;;;;;;;;;29.87;34.24;100978.94;5075980;28;1974;-23
2023/09/29 09:51:00;;;;;;;;;;;;;;;29.89;33.57;100985.00;5057919;28;1102;-24
2023/09/29 09:53:26;;;;;;;;;;;;;;;29.92;33.87;100984.59;5056964;28;1104;-25
2023/09/29 09:55:56;;;;;;;;;;;;;;;29.85;34.00;100976.41;5058855;28;1087;-24
2023/09/29 09:58:22;;;;;;;;;;;;;;;29.93;34.30;100970.84;5079456;28;1047;-23
2023/09/29 10:00:54;;;;;;;;;;;;;;;29.90;34.08;100973.97;5079719;28;1143;-23
2023/09/29 10:03:20;;;;;;;;;;;;;;;29.90;34.69;100971.25;5079503;28;1157;-24
2023/09/29 10:05:52;;;;;;;;;;;;;;;29.69;34.32;100978.41;5079503;28;1146;-24
2023/09/29 10:08:30;;;;;;;;;;;;;;;29.71;34.65;100975.50;5078190;28;1109;-24
2023/09/29 10:11:10;;;;;;;;;;;;;;;29.63;34.75;100975.63;5078448;28;1105;-24
2023/09/29 10:13:36;;;;;;;;;;;;;;;29.69;34.50;100970.25;5079859;28;1026;-23
2023/09/29 10:16:03;;;;;;;;;;;;;;;29.72;34.78;100968.16;5079683;28;1209;-24
2023/09/29 10:18:30;;;;;;;;;;;;;;;29.86;34.09;100969.97;5061793;28;1016;-25
2023/09/29 10:21:00;;;;;;;;;;;;;;;30.27;33.73;100967.56;5076480;28;1004;-23
2023/09/29 10:23:26;;;;;;;;;;;;;;;30.12;33.37;100962.22;5061848;28;1186;-24
2023/09/29 10:26:02;;;;;;;;;;;;;;;30.18;33.63;100967.69;5078985;28;1123;-24
2023/09/29 10:28:31;;;;;;;;;;;;;;;30.04;33.95;100971.34;5079148;28;1909;-24
2023/09/29 10:31:05;;;;;;;;;;;;;;;30.25;32.97;100966.91;5071779;28;1091;-24
2023/09/29 10:33:31;;;;;;;;;;;;;;;30.48;33.19;100963.91;5078554;28;1088;-24
2023/09/29 10:35:56;;;;;;;;;;;;;;;30.58;33.22;100958.09;5079154;28;1027;-24
2023/09/29 10:38:22;;;;;;;;;;;;;;;30.81;32.34;100954.28;5079098;28;1133;-23
2023/09/29 10:40:48;;;;;;;;;;;;;;;30.40;33.04;100953.22;5078456;28;1050;-23
2023/09/29 10:43:17;;;;;;;;;;;;;;;30.65;33.09;100958.97;5079248;28;1013;-23
2023/09/29 10:45:43;;;;;;;;;;;;;;;30.83;32.43;100954.91;5078637;28;880;-24
2023/09/29 10:48:08;;;;;;;;;;;;;;;30.81;32.22;100953.44;5078349;28;1335;-23
2023/09/29 10:50:44;;;;;;;;;;;;;;;30.50;33.00;100955.56;5079267;28;1913;-23
2023/09/29 10:53:10;;;;;;;;;;;;;;;30.55;33.08;100953.09;5078705;28;1195;-23
2023/09/29 10:55:37;;;;;;;;;;;;;;;30.75;32.83;100952.31;5077979;28;1074;-23
2023/09/29 10:58:04;;;;;;;;;;;;;;;30.85;32.57;100949.25;5060599;28;1600;-23
2023/09/29 11:00:30;;;;;;;;;;;;;;;30.94;32.83;100931.75;5078202;28;1257;-25
2023/09/29 11:02:55;;;;;;;;;;;;;;;31.06;32.16;100920.28;5078763;28;1074;-24
2023/09/29 11:05:21;;;;;;;;;;;;;;;30.96;32.24;100926.97;5078279;28;995;-23
2023/09/29 11:07:48;;;;;;;;;;;;;;;30.71;32.20;100935.63;5078327;28;1405;-25
2023/09/29 11:10:14;;;;;;;;;;;;;;;30.58;33.44;100941.81;5077772;28;1931;-25
2023/09/29 11:12:43;;;;;;;;;;;;;;;30.37;33.42;100934.63;5078653;28;1050;-26
2023/09/29 11:15:09;;;;;;;;;;;;;;;30.65;33.30;100933.69;5078250;28;1150;-25
2023/09/29 11:17:44;;;;;;;;;;;;;;;30.75;32.90;100926.03;5078312;28;1046;-25
2023/09/29 11:20:14;;;;;;;;;;;;;;;31.01;32.37;100921.72;5077724;28;1042;-24
2023/09/29 11:22:41;;;;;;;;;;;;;;;31.01;32.77;100920.91;5078255;28;1128;-23
2023/09/29 11:25:15;;;;;;;;;;;;;;;30.89;33.11;100926.09;5078000;28;1086;-23
2023/09/29 11:27:47;;;;;;;;;;;;;;;30.66;34.07;100921.81;5078403;28;1159;-23
2023/09/29 11:30:13;;;;;;;;;;;;;;;30.65;34.25;100925.56;5077841;28;1898;-23
2023/09/29 11:32:38;;;;;;;;;;;;;;;30.60;35.16;100923.47;5077570;28;1426;-24
2023/09/29 11:35:13;;;;;;;;;;;;;;;30.91;34.53;100919.41;5077817;28;1050;-24
2023/09/29 11:37:39;;;;;;;;;;;;;;;30.84;35.08;100928.59;5077714;28;1074;-23
2023/09/29 11:40:11;;;;;;;;;;;;;;;30.77;35.60;100928.53;5077475;28;1036;-23
2023/09/29 11:42:39;;;;;;;;;;;;;;;30.83;35.43;100926.91;5077967;28;1094;-23
2023/09/29 11:45:08;;;;;;;;;;;;;;;30.95;35.82;100913.59;5077690;28;877;-24
2023/09/29 11:47:38;;;;;;;;;;;;;;;24.26;47.19;100905.72;5077790;28;1047;-23
2023/09/29 11:50:04;;;;;;;;;;;;;;;21.86;50.25;100911.88;5077640;28;1909;-25
2023/09/29 11:52:30;;;;;;;;;;;;;;;20.97;52.25;100898.47;5077616;28;1099;-24
2023/09/29 11:54:56;;;;;;;;;;;;;;;20.30;51.49;100891.75;5077250;28;1257;-24
2023/09/29 11:57:21;;;;;;;;;;;;;;;19.92;51.36;100889.53;5077127;28;1023;-23
2023/09/29 11:59:47;;;;;;;;;;;;;;;20.31;51.29;100893.44;5077577;28;1275;-25
2023/09/29 12:02:14;;;;;;;;;;;;;;;20.58;50.92;100907.16;5077385;28;1124;-25
2023/09/29 12:04:39;;;;;;;;;;;;;;;20.49;51.36;100906.16;5077462;28;1024;-25
2023/09/29 12:07:05;;;;;;;;;;;;;;;20.15;51.22;100896.59;5077252;28;1290;-25
2023/09/29 12:09:30;;;;;;;;;;;;;;;20.25;52.56;100886.78;5076853;28;1910;-24
2023/09/29 12:12:00;;;;;;;;;;;;;;;20.43;52.95;100897.72;5077163;28;1089;-24
2023/09/29 12:14:26;;;;;;;;;;;;;;;20.44;53.40;100890.53;5077252;28;1050;-25
2023/09/29 12:16:53;;;;;;;;;;;;;;;20.45;53.62;100894.06;5076874;28;1199;-24
2023/09/29 12:19:20;;;;;;;;;;;;;;;20.48;53.49;100894.63;5077103;28;1054;-25
2023/09/29 12:21:47;;;;;;;;;;;;;;;20.32;54.26;100889.75;5076697;28;1057;-25
2023/09/29 12:24:13;;;;;;;;;;;;;;;20.34;54.32;100890.47;5077056;28;1051;-26
2023/09/29 12:26:39;;;;;;;;;;;;;;;20.24;54.51;100887.75;5077108;28;1058;-26
2023/09/29 12:29:05;;;;;;;;;;;;;;;20.25;54.42;100886.78;5077139;28;1984;-25
2023/09/29 12:31:30;;;;;;;;;;;;;;;20.20;54.80;100875.66;5076673;28;1100;-26
2023/09/29 12:33:56;;;;;;;;;;;;;;;20.14;54.92;100873.50;5076685;28;908;-26
2023/09/29 12:36:22;;;;;;;;;;;;;;;20.14;55.20;100873.50;5077112;28;1146;-26
2023/09/29 12:38:48;;;;;;;;;;;;;;;20.14;55.42;100871.69;5076946;28;1054;-27
2023/09/29 12:41:15;;;;;;;;;;;;;;;20.19;55.53;100874.81;5075883;28;1007;-26
2023/09/29 12:43:41;;;;;;;;;;;;;;;21.80;58.51;100881.19;5076711;28;1034;-26